Anthony, Kansas
Current Conditions -  °F | °C
As of 1:15 AM on Friday 28 Nov 2014 (Local Time) from KAVK Reporting Station
Clear Clear  
Wind Chill: 33°   Ceiling: Unl
Heat Index: 41°   Visibility: 10mi
Dew Point: 28°   Wind: 15mph
Humidity: 61%   Direction: 200°SSW
Pressure: 30.1"   Gusts: NA
Location:  37.15°N, 98.03°W
Report Text: KAVK 280715Z AUTO 20013KT 10SM CLR 05/M02 A3010 RMK AO2
Loading
Personal Weather Stations






























Interactive Weather Map New forecast layout! Learn more

10-Day Weather Forecast

Advertisements
Track Severe Weather on mobile